Time;durP1;ratioP1;P1;durP2;ratioP2;P2;SDS_P1;SDS_P2;PMS_P1;PMS_P2;Temp;Humidity;BMP_temperature;BMP_pressure;BME280_temperature;BME280_humidity;BME280_pressure;Samples;Min_cycle;Max_cycle;Signal;HPM_P1;HPM_P2
2021/04/27 00:01:37;;;;;;;101.97;39.27;;;;;;;-1.26;61.85;100784.52;1747937;81;21617;-68
2021/04/27 00:04:03;;;;;;;143.57;51.63;;;;;;;-1.31;61.93;100781.80;1780609;80;21140;-68
2021/04/27 00:06:30;;;;;;;130.05;48.52;;;;;;;-1.34;62.00;100781.51;1748395;81;21197;-68
2021/04/27 00:08:56;;;;;;;109.50;45.70;;;;;;;-1.36;62.08;100782.50;1780300;80;21179;-67
2021/04/27 00:11:24;;;;;;;118.50;46.70;;;;;;;-1.35;62.18;100780.27;1748304;82;21180;-68
2021/04/27 00:13:51;;;;;;;105.10;41.60;;;;;;;-1.31;62.22;100772.64;1748222;82;21152;-68
2021/04/27 00:16:18;;;;;;;119.10;46.85;;;;;;;-1.28;62.29;100777.23;1780883;80;21188;-68
2021/04/27 00:18:46;;;;;;;112.30;46.48;;;;;;;-1.27;62.35;100774.16;1780272;80;22060;-68
2021/04/27 00:21:14;;;;;;;119.95;47.38;;;;;;;-1.28;62.41;100773.31;1748366;82;21180;-67
2021/04/27 00:23:40;;;;;;;127.00;49.40;;;;;;;-1.28;62.46;100768.53;1748211;82;21140;-68
2021/04/27 00:26:07;;;;;;;120.85;46.18;;;;;;;-1.28;62.53;100768.53;1748280;82;21148;-68
2021/04/27 00:28:33;;;;;;;107.85;43.90;;;;;;;-1.30;62.59;100769.92;1780564;80;21128;-68
2021/04/27 00:31:00;;;;;;;91.70;39.70;;;;;;;-1.28;62.66;100761.53;1748338;81;21644;-68
2021/04/27 00:33:26;;;;;;;95.03;42.10;;;;;;;-1.28;62.72;100755.45;1780484;80;21144;-68
2021/04/27 00:35:52;;;;;;;94.77;41.28;;;;;;;-1.30;62.77;100759.95;1748124;82;21188;-68
2021/04/27 00:38:19;;;;;;;82.10;36.33;;;;;;;-1.33;62.80;100760.09;1780607;80;21188;-68
2021/04/27 00:40:45;;;;;;;94.05;39.45;;;;;;;-1.36;62.88;100751.95;1748302;82;21156;-68
2021/04/27 00:43:12;;;;;;;94.83;40.98;;;;;;;-1.35;62.94;100756.73;1780567;80;22015;-68
2021/04/27 00:45:39;;;;;;;121.40;42.43;;;;;;;-1.35;62.99;100751.50;1752907;81;21136;-68
2021/04/27 00:48:05;;;;;;;97.12;39.80;;;;;;;-1.39;63.03;100757.36;1760022;81;21163;-68
2021/04/27 00:50:36;;;;;;;111.80;41.77;;;;;;;-1.40;63.11;100752.20;1760291;80;21195;-68
2021/04/27 00:53:03;;;;;;;103.45;40.85;;;;;;;-1.44;63.15;100754.15;1760126;80;21697;-68
2021/04/27 00:55:30;;;;;;;90.00;36.98;;;;;;;-1.44;63.19;100752.03;1760358;80;21202;-67
2021/04/27 00:57:59;;;;;;;96.80;40.33;;;;;;;-1.46;63.24;100752.55;1740628;82;21171;-68
2021/04/27 01:00:26;;;;;;;101.10;42.53;;;;;;;-1.49;63.31;100754.89;1759870;81;21147;-67
2021/04/27 01:02:52;;;;;;;102.32;41.58;;;;;;;-1.54;63.37;100752.52;1759538;81;21147;-68
2021/04/27 01:05:22;;;;;;;85.32;34.60;;;;;;;-1.56;63.43;100747.00;1760330;80;21561;-67
2021/04/27 01:08:23;;;;;;;88.65;35.65;;;;;;;-1.60;63.48;100750.25;1760398;80;21244;-68
2021/04/27 01:11:30;;;;;;;86.25;34.08;;;;;;;-1.60;63.53;100746.33;1760267;80;21163;-68
2021/04/27 01:14:27;;;;;;;89.30;34.23;;;;;;;-1.60;63.59;100747.63;1740706;82;21156;-67
2021/04/27 01:16:57;;;;;;;75.40;34.35;;;;;;;-1.61;63.64;100751.17;1759824;81;21213;-68
2021/04/27 01:19:30;;;;;;;87.70;34.18;;;;;;;-1.63;63.67;100745.19;1759767;81;21143;-68
2021/04/27 01:21:56;;;;;;;83.03;33.67;;;;;;;-1.65;63.74;100752.26;1759295;81;21202;-68
2021/04/27 01:24:34;;;;;;;80.77;32.60;;;;;;;-1.68;63.80;100745.05;1740630;82;21235;-68
2021/04/27 01:27:01;;;;;;;77.37;31.95;;;;;;;-1.70;63.83;100746.45;1759817;81;21163;-68
2021/04/27 01:29:29;;;;;;;78.72;34.43;;;;;;;-1.71;63.90;100746.53;1759830;81;21207;-68
2021/04/27 01:31:58;;;;;;;82.10;33.92;;;;;;;-1.73;63.94;100746.63;1760128;80;21636;-68
2021/04/27 01:34:28;;;;;;;72.53;32.85;;;;;;;-1.75;63.96;100745.00;1770431;80;22163;-68
2021/04/27 01:36:55;;;;;;;80.53;33.95;;;;;;;-1.76;64.01;100745.95;1742296;81;21184;-68
2021/04/27 01:39:27;;;;;;;76.62;33.73;;;;;;;-1.80;64.07;100745.27;1760046;81;21633;-68
2021/04/27 01:42:00;;;;;;;78.95;31.93;;;;;;;-1.90;64.13;100745.36;1760203;81;21593;-68
2021/04/27 01:44:28;;;;;;;75.95;31.12;;;;;;;-1.90;64.19;100744.05;1758849;81;21135;-68
2021/04/27 01:46:54;;;;;;;79.72;32.40;;;;;;;-1.90;64.27;100747.98;1757544;80;22055;-68
2021/04/27 01:49:21;;;;;;;78.52;29.77;;;;;;;-1.91;64.32;100743.70;1724800;83;21990;-68
2021/04/27 01:51:47;;;;;;;69.40;28.42;;;;;;;-1.98;64.37;100746.27;1725095;82;21243;-68
2021/04/27 01:54:14;;;;;;;69.92;28.52;;;;;;;-2.01;64.44;100746.43;1725011;83;21184;-68
2021/04/27 01:56:40;;;;;;;57.03;22.87;;;;;;;-2.01;64.48;100741.20;1725025;83;21148;-68
2021/04/27 01:59:06;;;;;;;54.35;22.30;;;;;;;-1.98;64.50;100738.42;1780707;80;21192;-68
2021/04/27 02:01:33;;;;;;;54.35;20.00;;;;;;;-2.00;64.52;100738.95;1748250;82;21180;-68
2021/04/27 02:04:00;;;;;;;58.50;21.80;;;;;;;-2.08;64.58;100736.77;1748390;82;21168;-68
2021/04/27 02:06:27;;;;;;;56.10;22.70;;;;;;;-2.12;64.62;100740.93;1780474;80;21144;-68
2021/04/27 02:09:01;;;;;;;54.08;21.15;;;;;;;-2.19;64.68;100739.56;1780722;80;21136;-68
2021/04/27 02:11:29;;;;;;;51.53;19.20;;;;;;;-2.23;64.75;100732.81;1748345;82;21152;-68
2021/04/27 02:13:56;;;;;;;53.25;20.57;;;;;;;-2.25;64.79;100735.98;1780622;80;21140;-68
2021/04/27 02:16:23;;;;;;;65.30;19.87;;;;;;;-2.28;64.85;100737.42;1748421;82;21148;-68
2021/04/27 02:18:53;;;;;;;42.55;18.77;;;;;;;-2.31;64.89;100729.75;1780525;80;21172;-68
2021/04/27 02:21:19;;;;;;;46.73;20.32;;;;;;;-2.32;64.95;100732.00;1746162;82;21153;-68
2021/04/27 02:23:45;;;;;;;44.73;19.45;;;;;;;-2.32;64.98;100729.39;1780715;80;21177;-68
2021/04/27 02:26:13;;;;;;;48.23;18.07;;;;;;;-2.32;65.04;100729.39;1748533;82;21221;-68
2021/04/27 02:28:40;;;;;;;47.13;21.37;;;;;;;-2.32;65.07;100725.47;1780624;80;21592;-68
2021/04/27 02:31:07;;;;;;;50.28;19.25;;;;;;;-2.33;65.13;100727.69;1780768;80;21144;-68
2021/04/27 02:33:34;;;;;;;42.10;18.95;;;;;;;-2.31;65.16;100725.83;1748284;82;21136;-68
2021/04/27 02:36:01;;;;;;;45.95;18.77;;;;;;;-2.32;65.20;100724.16;1780863;80;21270;-68
2021/04/27 02:38:27;;;;;;;53.40;18.87;;;;;;;-2.33;65.25;100721.16;1780634;80;21200;-68
2021/04/27 02:40:56;;;;;;;48.98;18.05;;;;;;;-2.38;65.31;100712.71;1748304;82;21140;-68
2021/04/27 02:43:23;;;;;;;38.70;17.77;;;;;;;-2.37;65.32;100714.41;1780719;80;21642;-68
2021/04/27 02:45:49;;;;;;;49.77;18.75;;;;;;;-2.37;65.36;100709.19;1743360;81;21136;-68
2021/04/27 02:48:19;;;;;;;40.25;18.20;;;;;;;-2.34;65.39;100716.86;1756170;81;21213;-68
2021/04/27 02:50:49;;;;;;;44.05;18.20;;;;;;;-2.38;65.43;100713.56;1756238;81;21574;-68
2021/04/27 02:53:15;;;;;;;46.18;20.32;;;;;;;-2.42;65.44;100710.72;1756237;81;27238;-68
2021/04/27 02:55:42;;;;;;;42.90;17.70;;;;;;;-2.42;65.48;100716.41;1762205;81;21086;-68
2021/04/27 02:58:09;;;;;;;52.88;19.75;;;;;;;-2.42;65.51;100708.57;1756064;81;21188;-68
2021/04/27 03:00:35;;;;;;;42.65;18.65;;;;;;;-2.40;65.53;100711.97;1756135;81;21259;-68
2021/04/27 03:03:02;;;;;;;43.13;21.05;;;;;;;-2.38;65.58;100716.62;1755788;81;21127;-68
2021/04/27 03:05:28;;;;;;;66.30;24.27;;;;;;;-2.44;65.59;100711.73;1756160;81;21133;-68
2021/04/27 03:07:54;;;;;;;64.25;27.27;;;;;;;-2.44;65.65;100712.59;1756139;81;21152;-68
2021/04/27 03:10:21;;;;;;;57.75;22.82;;;;;;;-2.42;65.68;100712.48;1756270;81;21148;-68
2021/04/27 03:12:47;;;;;;;52.62;25.35;;;;;;;-2.44;65.70;100718.27;1756197;81;22132;-68
2021/04/27 03:15:14;;;;;;;63.00;25.05;;;;;;;-2.45;65.73;100711.34;1755935;81;21168;-68
2021/04/27 03:17:41;;;;;;;62.50;26.93;;;;;;;-2.47;65.77;100713.20;1756035;81;21255;-68
2021/04/27 03:20:09;;;;;;;63.15;27.65;;;;;;;-2.48;65.80;100715.42;1756080;81;21148;-68
2021/04/27 03:22:35;;;;;;;61.10;26.20;;;;;;;-2.48;65.82;100712.36;1756302;81;21629;-70
2021/04/27 03:25:02;;;;;;;59.38;25.27;;;;;;;-2.48;65.86;100712.81;1756022;81;21608;-68
2021/04/27 03:27:28;;;;;;;62.20;26.00;;;;;;;-2.49;65.89;100708.51;1756128;81;21148;-68
2021/04/27 03:29:55;;;;;;;65.12;25.77;;;;;;;-2.49;65.92;100709.81;1756139;81;21159;-69
2021/04/27 03:32:21;;;;;;;55.90;25.77;;;;;;;-2.45;65.94;100707.43;1755844;81;21128;-68
2021/04/27 03:34:47;;;;;;;65.45;24.70;;;;;;;-2.43;65.97;100704.30;1756274;81;21195;-68
2021/04/27 03:37:14;;;;;;;64.12;23.98;;;;;;;-2.44;65.97;100708.67;1755787;81;21257;-68
2021/04/27 03:39:40;;;;;;;53.40;23.12;;;;;;;-2.49;66.01;100706.75;1756074;81;21200;-68
2021/04/27 03:42:07;;;;;;;58.15;21.50;;;;;;;-2.49;66.03;100715.03;1756103;81;21140;-68
2021/04/27 03:44:33;;;;;;;54.88;19.77;;;;;;;-2.53;66.09;100709.98;1756022;81;21152;-68
2021/04/27 03:47:00;;;;;;;48.95;19.48;;;;;;;-2.53;66.14;100709.98;1756292;80;21144;-68
2021/04/27 03:49:26;;;;;;;47.13;18.80;;;;;;;-2.50;66.20;100705.54;1756695;81;21943;-68
2021/04/27 03:51:52;;;;;;;48.15;20.27;;;;;;;-2.47;66.20;100710.14;1756851;81;21080;-68
2021/04/27 03:54:19;;;;;;;43.70;20.20;;;;;;;-2.43;66.23;100705.59;1756328;81;21148;-69
2021/04/27 03:56:46;;;;;;;52.50;20.57;;;;;;;-2.39;66.25;100713.66;1756610;81;21152;-68
2021/04/27 03:59:13;;;;;;;43.80;20.32;;;;;;;-2.36;66.29;100711.73;1756573;81;21172;-68
2021/04/27 04:01:39;;;;;;;35.55;17.90;;;;;;;-2.39;66.31;100713.17;1756788;81;22544;-68
2021/04/27 04:04:06;;;;;;;48.25;19.45;;;;;;;-2.30;66.35;100714.47;1756490;81;21128;-69
2021/04/27 04:06:35;;;;;;;46.83;21.35;;;;;;;-2.17;66.39;100720.27;1756748;81;21148;-68
2021/04/27 04:09:06;;;;;;;51.48;23.02;;;;;;;-1.75;66.58;100718.41;1756735;81;21502;-68
2021/04/27 04:11:33;;;;;;;48.35;22.67;;;;;;;-0.91;66.85;100715.77;1756708;81;21152;-69
2021/04/27 04:14:00;;;;;;;55.58;21.55;;;;;;;0.04;66.91;100722.22;1756787;81;22146;-69
2021/04/27 04:16:27;;;;;;;49.20;23.65;;;;;;;1.24;66.83;100719.64;1756468;81;21689;-69
2021/04/27 04:18:53;;;;;;;51.35;23.60;;;;;;;2.27;66.58;100718.55;1756584;80;21609;-69
2021/04/27 04:21:20;;;;;;;40.17;19.20;;;;;;;3.33;66.29;100715.94;1756734;81;21157;-69
2021/04/27 04:23:46;;;;;;;43.95;18.77;;;;;;;4.33;65.87;100712.02;1756730;81;21140;-69
2021/04/27 04:26:13;;;;;;;36.70;18.17;;;;;;;5.29;65.41;100718.66;1756798;81;21180;-69
2021/04/27 04:28:41;;;;;;;33.78;16.52;;;;;;;5.68;65.02;100711.81;1756694;80;21629;-69
2021/04/27 04:31:08;;;;;;;45.60;18.05;;;;;;;6.20;64.67;100713.47;1756923;81;21214;-69
2021/04/27 04:33:34;;;;;;;31.82;16.45;;;;;;;6.73;64.13;100717.50;1756683;81;21160;-70
2021/04/27 04:36:00;;;;;;;35.33;17.52;;;;;;;7.35;63.48;100717.60;1756996;81;21152;-70
2021/04/27 04:38:26;;;;;;;38.78;19.98;;;;;;;7.79;62.86;100712.95;1756815;81;21189;-70
2021/04/27 04:40:53;;;;;;;56.13;29.50;;;;;;;8.42;62.16;100716.63;1756699;81;21187;-69
2021/04/27 04:43:19;;;;;;;55.23;29.87;;;;;;;8.93;61.31;100719.19;1756859;81;21133;-69
2021/04/27 04:45:46;;;;;;;46.95;25.27;;;;;;;8.67;60.40;100712.92;1756616;81;21144;-69
2021/04/27 04:48:13;;;;;;;41.55;20.52;;;;;;;7.73;59.57;100718.85;1756989;80;21173;-70
2021/04/27 04:50:40;;;;;;;40.70;19.37;;;;;;;8.03;59.68;100715.10;1756789;81;21144;-70
2021/04/27 04:53:06;;;;;;;34.50;18.42;;;;;;;8.71;59.44;100720.94;1756853;81;21156;-70
2021/04/27 04:55:35;;;;;;;40.12;19.45;;;;;;;9.23;58.68;100711.30;1737203;81;21184;-70
2021/04/27 04:58:02;;;;;;;38.35;21.45;;;;;;;9.62;57.52;100714.42;1759531;80;21145;-70
2021/04/27 05:00:29;;;;;;;41.95;25.62;;;;;;;9.46;56.16;100709.31;1762806;80;21168;-70
2021/04/27 05:02:55;;;;;;;38.90;18.70;;;;;;;8.98;55.70;100715.56;1773218;80;21156;-70
2021/04/27 05:05:22;;;;;;;39.95;18.77;;;;;;;8.31;55.71;100720.81;1785862;80;21136;-70
2021/04/27 05:07:57;;;;;;;34.05;19.32;;;;;;;7.82;55.90;100717.97;1760286;80;21162;-70
2021/04/27 05:10:16;;;;;;;40.05;20.23;;;;;;;7.65;55.88;100716.55;1783341;80;21922;-70
2021/04/27 05:12:43;;;;;;;38.23;20.00;;;;;;;7.63;55.75;100719.38;1785433;80;21160;-70
2021/04/27 05:15:10;;;;;;;41.92;20.80;;;;;;;7.57;55.58;100714.61;1756820;80;21178;-70
2021/04/27 05:17:37;;;;;;;56.35;22.45;;;;;;;7.71;55.38;100718.63;1782963;80;21131;-70
2021/04/27 05:20:05;;;;;;;51.23;26.05;;;;;;;7.86;55.16;100723.83;1786176;80;21147;-70
2021/04/27 05:22:31;;;;;;;48.52;26.25;;;;;;;8.10;54.91;100717.52;1758955;80;21131;-70
2021/04/27 05:24:57;;;;;;;62.60;31.45;;;;;;;8.36;54.60;100717.23;1786666;80;21147;-70
2021/04/27 05:27:24;;;;;;;50.70;28.42;;;;;;;8.65;54.30;100722.88;1766385;80;21202;-70
2021/04/27 05:29:51;;;;;;;61.88;32.42;;;;;;;8.79;54.13;100724.53;1756694;81;21595;-70
2021/04/27 05:32:17;;;;;;;60.83;31.62;;;;;;;8.93;53.87;100725.83;1759660;80;21641;-70
2021/04/27 05:34:43;;;;;;;67.45;35.33;;;;;;;8.98;53.65;100724.87;1758721;80;21207;-71
2021/04/27 05:37:09;;;;;;;71.28;38.08;;;;;;;9.04;53.41;100727.75;1757300;80;21605;-70
2021/04/27 05:39:36;;;;;;;70.67;37.00;;;;;;;9.02;53.27;100724.91;1784554;80;21200;-70
2021/04/27 05:42:03;;;;;;;66.28;37.85;;;;;;;9.15;52.96;100729.34;1774136;80;21159;-70
2021/04/27 05:44:29;;;;;;;62.25;32.80;;;;;;;9.08;52.79;100732.28;1764958;80;21140;-71
2021/04/27 05:46:55;;;;;;;52.75;29.42;;;;;;;9.04;52.40;100726.42;1772012;80;21860;-71
2021/04/27 05:49:22;;;;;;;45.35;23.73;;;;;;;9.14;52.22;100734.35;1759731;80;21134;-71
2021/04/27 05:51:48;;;;;;;59.77;27.82;;;;;;;9.10;52.13;100737.46;1764433;80;21165;-71
2021/04/27 05:54:14;;;;;;;64.70;31.77;;;;;;;9.00;51.99;100744.20;1761738;80;21167;-70
2021/04/27 05:56:41;;;;;;;80.42;38.70;;;;;;;9.03;51.81;100731.91;1769158;80;21151;-71
2021/04/27 05:59:07;;;;;;;90.70;41.48;;;;;;;9.23;51.47;100735.24;1761679;80;21184;-71
2021/04/27 06:01:34;;;;;;;80.07;41.60;;;;;;;9.24;51.16;100739.09;1777397;80;21112;-71
2021/04/27 06:04:00;;;;;;;55.03;26.35;;;;;;;9.21;51.03;100738.08;1759252;80;21368;-71
2021/04/27 06:06:26;;;;;;;68.28;30.15;;;;;;;9.32;51.04;100739.14;1758969;80;21213;-70
2021/04/27 06:08:53;;;;;;;53.73;26.60;;;;;;;9.41;50.99;100736.91;1758918;80;21102;-70
2021/04/27 06:11:19;;;;;;;33.20;16.32;;;;;;;9.54;50.81;100743.99;1761826;80;21124;-71
2021/04/27 06:13:45;;;;;;;27.98;15.20;;;;;;;9.36;50.47;100741.84;1764046;80;21545;-71
2021/04/27 06:16:12;;;;;;;26.73;15.00;;;;;;;9.15;50.25;100740.52;1772568;80;21194;-70
2021/04/27 06:18:39;;;;;;;34.23;17.05;;;;;;;8.99;49.99;100742.02;1787400;80;21605;-71
2021/04/27 06:21:06;;;;;;;40.48;17.15;;;;;;;9.00;49.80;100745.03;1762227;80;21150;-71
2021/04/27 06:23:33;;;;;;;28.40;16.40;;;;;;;9.26;49.65;100746.42;1767807;80;21179;-71
2021/04/27 06:25:59;;;;;;;34.25;18.17;;;;;;;9.35;49.46;100744.19;1787169;80;21226;-71
2021/04/27 06:28:25;;;;;;;27.05;13.32;;;;;;;9.26;49.16;100745.09;1761166;80;21259;-70
2021/04/27 06:30:52;;;;;;;25.97;13.90;;;;;;;9.18;48.96;100745.03;1760781;80;21174;-70
2021/04/27 06:33:18;;;;;;;28.92;15.68;;;;;;;9.26;48.78;100742.42;1784955;80;21152;-70
2021/04/27 06:35:44;;;;;;;20.12;11.78;;;;;;;9.33;48.56;100750.14;1773918;80;21212;-70
2021/04/27 06:38:16;;;;;;;20.68;11.48;;;;;;;9.58;48.43;100753.00;1756047;81;21159;-70
2021/04/27 06:40:39;;;;;;;39.42;14.78;;;;;;;9.79;48.23;100746.83;1757992;80;22157;-70
2021/04/27 06:43:05;;;;;;;32.03;14.90;;;;;;;9.87;48.01;100748.22;1758074;80;21132;-71
2021/04/27 06:45:32;;;;;;;28.52;15.68;;;;;;;9.98;47.81;100750.62;1765741;80;21687;-70
2021/04/27 06:47:58;;;;;;;38.17;19.67;;;;;;;10.05;47.67;100749.01;1767387;80;21147;-71
2021/04/27 06:50:25;;;;;;;32.80;16.10;;;;;;;10.09;47.46;100753.52;1783133;80;21577;-71
2021/04/27 06:52:51;;;;;;;31.85;14.93;;;;;;;10.38;47.39;100757.52;1757295;80;22264;-70
2021/04/27 06:55:17;;;;;;;24.05;11.63;;;;;;;10.47;47.14;100760.58;1756262;81;21222;-71
2021/04/27 06:57:44;;;;;;;20.15;10.10;;;;;;;10.12;46.94;100755.37;1756631;79;21156;-71
2021/04/27 07:00:11;;;;;;;25.43;12.75;;;;;;;10.19;46.86;100757.78;1778609;80;21652;-70
2021/04/27 07:02:38;;;;;;;21.48;10.45;;;;;;;10.01;46.54;100753.81;1748428;82;21247;-71
2021/04/27 07:05:05;;;;;;;21.42;10.25;;;;;;;10.25;46.42;100757.13;1785913;80;21573;-71
2021/04/27 07:07:31;;;;;;;20.27;8.88;;;;;;;10.41;46.20;100749.20;1780054;80;21136;-70
2021/04/27 07:09:57;;;;;;;23.38;9.25;;;;;;;10.13;45.83;100754.39;1760677;80;21584;-71
2021/04/27 07:12:24;;;;;;;17.70;7.33;;;;;;;10.02;45.64;100747.99;1761730;80;21993;-70
2021/04/27 07:14:50;;;;;;;16.70;7.30;;;;;;;10.19;45.36;100751.12;1778411;80;21132;-71
2021/04/27 07:17:17;;;;;;;16.52;7.55;;;;;;;9.91;44.99;100745.59;1783000;80;21195;-71
2021/04/27 07:19:43;;;;;;;17.95;8.90;;;;;;;9.83;44.78;100746.86;1778798;80;21164;-70
2021/04/27 07:22:10;;;;;;;16.25;8.65;;;;;;;10.19;44.73;100748.94;1779174;80;21576;-70
2021/04/27 07:24:36;;;;;;;13.25;6.65;;;;;;;10.30;44.48;100739.34;1779069;80;21227;-70
2021/04/27 07:27:03;;;;;;;13.58;5.97;;;;;;;10.08;44.03;100747.36;1726097;81;21164;-70
2021/04/27 07:29:29;;;;;;;17.52;7.45;;;;;;;10.23;44.05;100747.14;1748410;82;22407;-70
2021/04/27 07:31:55;;;;;;;19.00;9.48;;;;;;;10.34;43.83;100744.69;1748521;82;21152;-70
2021/04/27 07:34:22;;;;;;;20.62;10.48;;;;;;;10.21;43.68;100744.27;1765891;80;21192;-70
2021/04/27 07:36:48;;;;;;;63.58;40.92;;;;;;;10.44;43.67;100739.58;1787597;80;21561;-71
2021/04/27 07:39:15;;;;;;;19.15;11.08;;;;;;;10.77;43.58;100746.33;1787611;80;21152;-70
2021/04/27 07:41:42;;;;;;;12.25;6.78;;;;;;;10.59;43.30;100751.77;1787741;80;21189;-70
2021/04/27 07:44:09;;;;;;;9.38;5.17;;;;;;;10.68;43.24;100754.82;1787317;80;21139;-71
2021/04/27 07:46:35;;;;;;;7.47;4.17;;;;;;;10.58;42.95;100751.45;1787587;80;21172;-71
2021/04/27 07:49:03;;;;;;;9.40;4.80;;;;;;;10.63;42.80;100750.95;1787407;80;21156;-71
2021/04/27 07:51:29;;;;;;;13.32;7.37;;;;;;;10.82;42.63;100753.36;1787229;80;21517;-70
2021/04/27 07:53:55;;;;;;;27.13;12.95;;;;;;;10.99;42.43;100752.39;1787306;80;21648;-70
2021/04/27 07:56:21;;;;;;;11.97;6.08;;;;;;;11.01;42.20;100755.75;1787108;80;21962;-71
2021/04/27 07:58:48;;;;;;;7.92;4.37;;;;;;;11.11;42.01;100749.76;1787298;80;21592;-71
2021/04/27 08:01:14;;;;;;;10.72;4.90;;;;;;;11.24;41.87;100751.44;1787381;80;21167;-71
2021/04/27 08:03:41;;;;;;;7.35;4.05;;;;;;;11.53;41.79;100751.79;1787627;80;21695;-71
2021/04/27 08:06:08;;;;;;;7.22;3.77;;;;;;;11.64;41.57;100753.78;1752409;81;21187;-71
2021/04/27 08:08:34;;;;;;;8.00;3.85;;;;;;;11.69;41.34;100756.77;1755770;81;21209;-71
2021/04/27 08:11:01;;;;;;;7.83;3.62;;;;;;;11.39;40.95;100757.80;1755886;81;21141;-71
2021/04/27 08:13:27;;;;;;;28.07;13.60;;;;;;;11.22;40.89;100758.79;1755472;81;21159;-71
2021/04/27 08:15:54;;;;;;;23.40;10.35;;;;;;;11.49;40.80;100750.45;1731062;82;21199;-71
2021/04/27 08:18:21;;;;;;;9.13;4.05;;;;;;;11.39;40.52;100755.13;1731078;82;22123;-71
2021/04/27 08:20:48;;;;;;;8.23;4.17;;;;;;;10.90;40.08;100760.06;1755709;81;21635;-71
2021/04/27 08:23:15;;;;;;;10.05;3.12;;;;;;;10.73;40.02;100757.01;1755697;81;21163;-71
2021/04/27 08:25:41;;;;;;;8.30;4.67;;;;;;;10.29;39.67;100755.83;1755680;81;21148;-70
2021/04/27 08:28:07;;;;;;;10.23;4.50;;;;;;;9.99;39.67;100755.78;1755721;81;21187;-71
2021/04/27 08:30:33;;;;;;;6.22;3.20;;;;;;;10.02;39.56;100757.32;1755608;81;21209;-71
2021/04/27 08:33:00;;;;;;;6.40;3.47;;;;;;;10.24;39.39;100760.78;1755746;81;21196;-70
2021/04/27 08:35:27;;;;;;;8.15;3.47;;;;;;;10.56;39.22;100759.25;1755598;81;21187;-71
2021/04/27 08:37:53;;;;;;;12.90;5.00;;;;;;;10.88;39.04;100759.36;1755703;81;21199;-71
2021/04/27 08:40:19;;;;;;;9.45;3.60;;;;;;;11.16;39.02;100756.75;1755789;81;21135;-71
2021/04/27 08:42:47;;;;;;;7.50;3.52;;;;;;;11.21;38.72;100751.77;1755566;81;21270;-71
2021/04/27 08:45:14;;;;;;;5.15;3.83;;;;;;;11.13;38.49;100764.25;1755699;81;21224;-71
2021/04/27 08:47:40;;;;;;;7.35;3.17;;;;;;;11.12;38.37;100756.74;1755453;81;21180;-71
2021/04/27 08:50:09;;;;;;;9.75;3.87;;;;;;;11.21;38.19;100759.77;1755731;81;21140;-71
2021/04/27 08:52:36;;;;;;;8.63;4.20;;;;;;;11.33;38.05;100761.11;1755759;81;21167;-71
2021/04/27 08:55:03;;;;;;;11.20;6.08;;;;;;;11.60;37.97;100753.78;1755681;81;21306;-71
2021/04/27 08:57:29;;;;;;;8.55;4.55;;;;;;;11.86;37.85;100759.28;1755574;81;21156;-70
2021/04/27 08:59:56;;;;;;;8.93;4.53;;;;;;;11.42;37.62;100746.77;1755638;81;21175;-70
2021/04/27 09:02:30;;;;;;;10.28;4.95;;;;;;;11.12;37.68;100758.08;1755837;81;21224;-70
2021/04/27 09:04:56;;;;;;;10.90;4.47;;;;;;;11.13;37.61;100758.42;1755381;81;21175;-71
2021/04/27 09:07:24;;;;;;;9.90;5.00;;;;;;;11.37;37.55;100758.94;1755796;81;21298;-71
2021/04/27 09:09:57;;;;;;;10.72;5.12;;;;;;;11.06;37.25;100753.41;1755593;81;21146;-71
2021/04/27 09:12:34;;;;;;;7.62;4.80;;;;;;;10.99;37.16;100753.72;1755691;81;21144;-71
2021/04/27 09:15:00;;;;;;;11.28;7.50;;;;;;;10.85;36.81;100753.03;1755642;81;21132;-71
2021/04/27 09:17:28;;;;;;;9.48;4.70;;;;;;;10.84;36.73;100750.85;1755563;81;21128;-70
2021/04/27 09:19:58;;;;;;;10.38;5.08;;;;;;;10.87;36.61;100743.05;1755808;81;21902;-70
2021/04/27 09:22:28;;;;;;;12.60;5.10;;;;;;;11.02;36.57;100737.38;1755408;81;21140;-70
2021/04/27 09:25:01;;;;;;;20.45;5.33;;;;;;;11.28;36.61;100743.43;1754878;81;21198;-71
2021/04/27 09:27:35;;;;;;;8.13;4.83;;;;;;;11.56;36.62;100733.74;1755469;81;21673;-71
2021/04/27 09:30:17;;;;;;;10.03;4.85;;;;;;;11.64;36.63;100735.92;1755723;81;21581;-71
2021/04/27 09:32:47;;;;;;;7.60;3.65;;;;;;;11.76;36.46;100733.25;1755839;81;21207;-70
2021/04/27 09:35:32;;;;;;;;;;;;;;;11.26;35.98;100740.08;1757331;81;21163;-70
2021/04/27 09:38:17;;;;;;;10.30;4.08;;;;;;;11.06;35.95;100728.55;1755635;81;20283;-70
2021/04/27 09:41:05;;;;;;;9.93;4.22;;;;;;;11.04;35.78;100727.39;1755547;81;21585;-71
2021/04/27 09:43:39;;;;;;;7.17;4.30;;;;;;;11.10;35.81;100721.88;1755503;81;21223;-70
2021/04/27 09:46:14;;;;;;;15.38;4.62;;;;;;;11.16;35.73;100726.55;1755742;81;21487;-70
2021/04/27 09:48:52;;;;;;;12.25;4.33;;;;;;;11.22;35.65;100721.91;1759064;81;21167;-70
2021/04/27 09:51:21;;;;;;;6.92;5.20;;;;;;;11.22;35.63;100717.41;1730179;81;21607;-71
2021/04/27 09:53:54;;;;;;;6.85;4.15;;;;;;;11.12;35.53;100726.05;1754060;81;21179;-70
2021/04/27 09:56:49;;;;;;;6.25;4.12;;;;;;;10.71;35.53;100716.31;1737089;81;21133;-70
2021/04/27 09:59:28;;;;;;;8.08;3.77;;;;;;;10.37;35.65;100717.22;1730645;81;21209;-70
2021/04/27 10:01:56;;;;;;;7.28;3.62;;;;;;;10.32;35.80;100706.68;1732092;81;21568;-70
2021/04/27 10:04:24;;;;;;;9.03;4.95;;;;;;;10.45;35.90;100707.89;1745555;81;21147;-71
2021/04/27 10:06:50;;;;;;;9.88;4.10;;;;;;;10.75;35.87;100701.65;1726641;83;21158;-70
2021/04/27 10:09:17;;;;;;;8.50;4.40;;;;;;;10.91;35.66;100702.51;1743862;81;21163;-70
2021/04/27 10:11:43;;;;;;;10.50;5.47;;;;;;;11.10;35.56;100694.70;1739719;81;21585;-70
2021/04/27 10:14:10;;;;;;;9.00;3.70;;;;;;;11.24;35.42;100704.71;1698014;82;22036;-70
2021/04/27 10:16:37;;;;;;;4.70;3.08;;;;;;;11.20;35.26;100698.03;1730651;81;21174;-70
2021/04/27 10:19:04;;;;;;;6.05;3.45;;;;;;;11.19;35.21;100700.36;1730849;81;21147;-71
2021/04/27 10:21:33;;;;;;;6.33;2.62;;;;;;;11.22;35.06;100691.20;1731266;82;21562;-70
2021/04/27 10:24:03;;;;;;;5.85;2.85;;;;;;;11.09;34.65;100698.36;1738572;82;21156;-70
2021/04/27 10:26:31;;;;;;;7.03;4.00;;;;;;;10.92;34.21;100695.34;1736581;82;21667;-70
2021/04/27 10:29:07;;;;;;;5.85;2.85;;;;;;;10.78;34.07;100690.65;1734003;82;21224;-70
2021/04/27 10:31:38;;;;;;;8.33;3.90;;;;;;;10.85;33.92;100692.99;1730022;81;21578;-70
2021/04/27 10:34:14;;;;;;;6.67;3.60;;;;;;;10.71;33.49;100679.80;1732037;81;21205;-70
2021/04/27 10:36:55;;;;;;;7.83;3.80;;;;;;;10.90;33.48;100686.19;1731439;81;21404;-70
2021/04/27 10:39:39;;;;;;;6.80;4.05;;;;;;;10.92;33.35;100672.66;1747009;81;21735;-70
2021/04/27 10:42:20;;;;;;;6.55;4.40;;;;;;;11.08;33.44;100665.18;1748747;80;21241;-70
2021/04/27 10:45:04;;;;;;;11.18;4.08;;;;;;;11.28;33.43;100658.00;1809653;77;22920;-70
2021/04/27 10:47:42;;;;;;;16.82;4.42;;;;;;;11.41;33.39;100659.64;1766080;80;21624;-70
2021/04/27 10:50:11;;;;;;;6.22;3.37;;;;;;;11.48;33.44;100655.30;1790489;79;21189;-70
2021/04/27 10:52:41;;;;;;;5.12;3.37;;;;;;;11.44;33.31;100658.46;1760266;79;21234;-70
2021/04/27 10:55:29;;;;;;;6.12;3.60;;;;;;;11.09;33.08;100651.65;1794248;79;26599;-70
2021/04/27 10:57:58;;;;;;;8.23;4.08;;;;;;;10.81;32.90;100652.97;1763831;81;21620;-70
2021/04/27 11:00:34;;;;;;;5.87;3.67;;;;;;;10.74;32.98;100651.46;1764161;81;24814;-70
2021/04/27 11:03:24;;;;;;;14.23;3.75;;;;;;;10.75;32.89;100649.63;1762689;80;21224;-70
2021/04/27 11:06:02;;;;;;;76.97;58.13;;;;;;;10.46;32.96;100652.25;1763573;80;21150;-70
2021/04/27 11:08:59;;;;;;;6.33;4.40;;;;;;;10.32;33.04;100646.70;1773366;79;21198;-70
2021/04/27 11:11:33;;;;;;;6.83;4.17;;;;;;;10.35;33.21;100636.55;1719478;81;21135;-70
2021/04/27 11:14:21;;;;;;;11.20;4.65;;;;;;;10.66;33.35;100633.30;1732263;81;21151;-70
2021/04/27 11:16:58;;;;;;;39.58;15.78;;;;;;;10.91;33.42;100628.29;1764653;81;21253;-70
2021/04/27 11:19:30;;;;;;;9.08;4.20;;;;;;;11.04;33.34;100624.64;1764308;81;21165;-70
2021/04/27 11:22:29;;;;;;;5.37;3.40;;;;;;;10.93;33.16;100624.97;1764710;81;21148;-70